sensor_id;sensor_type;location;lat;lon;timestamp;P1;durP1;ratioP1;P2;durP2;ratioP2
14619;SDS011;32125;48.518;9.050;2023-04-07T00:02:00;11.23;;;8.87;;
14619;SDS011;32125;48.518;9.050;2023-04-07T00:04:26;11.13;;;7.80;;
14619;SDS011;32125;48.518;9.050;2023-04-07T00:06:52;10.60;;;8.70;;
14619;SDS011;32125;48.518;9.050;2023-04-07T00:09:18;11.83;;;8.83;;
14619;SDS011;32125;48.518;9.050;2023-04-07T00:11:44;13.37;;;8.63;;
14619;SDS011;32125;48.518;9.050;2023-04-07T00:14:10;10.87;;;8.37;;
14619;SDS011;32125;48.518;9.050;2023-04-07T00:16:36;10.53;;;8.00;;
14619;SDS011;32125;48.518;9.050;2023-04-07T00:19:02;11.37;;;8.27;;
14619;SDS011;32125;48.518;9.050;2023-04-07T00:21:28;11.57;;;8.23;;
14619;SDS011;32125;48.518;9.050;2023-04-07T00:23:54;9.50;;;8.07;;
14619;SDS011;32125;48.518;9.050;2023-04-07T00:26:20;11.00;;;8.50;;
14619;SDS011;32125;48.518;9.050;2023-04-07T00:28:46;10.33;;;8.50;;
14619;SDS011;32125;48.518;9.050;2023-04-07T00:31:13;10.83;;;8.30;;
14619;SDS011;32125;48.518;9.050;2023-04-07T00:33:39;9.80;;;7.77;;
14619;SDS011;32125;48.518;9.050;2023-04-07T00:36:05;9.47;;;7.93;;
14619;SDS011;32125;48.518;9.050;2023-04-07T00:38:31;9.60;;;7.90;;
14619;SDS011;32125;48.518;9.050;2023-04-07T00:40:57;9.67;;;7.60;;
14619;SDS011;32125;48.518;9.050;2023-04-07T00:43:23;10.60;;;8.33;;
14619;SDS011;32125;48.518;9.050;2023-04-07T00:45:50;8.97;;;7.07;;
14619;SDS011;32125;48.518;9.050;2023-04-07T00:48:18;11.90;;;7.70;;
14619;SDS011;32125;48.518;9.050;2023-04-07T00:50:44;9.73;;;7.73;;
14619;SDS011;32125;48.518;9.050;2023-04-07T00:53:11;10.77;;;7.73;;
14619;SDS011;32125;48.518;9.050;2023-04-07T00:55:37;8.97;;;7.83;;
14619;SDS011;32125;48.518;9.050;2023-04-07T00:58:03;8.30;;;7.20;;
14619;SDS011;32125;48.518;9.050;2023-04-07T01:00:30;10.90;;;8.27;;
14619;SDS011;32125;48.518;9.050;2023-04-07T01:03:08;10.53;;;8.27;;
14619;SDS011;32125;48.518;9.050;2023-04-07T01:05:41;9.63;;;7.80;;
14619;SDS011;32125;48.518;9.050;2023-04-07T01:08:20;9.50;;;7.90;;
14619;SDS011;32125;48.518;9.050;2023-04-07T01:10:50;9.83;;;7.47;;
14619;SDS011;32125;48.518;9.050;2023-04-07T01:13:27;10.77;;;7.63;;
14619;SDS011;32125;48.518;9.050;2023-04-07T01:16:00;11.17;;;8.00;;
14619;SDS011;32125;48.518;9.050;2023-04-07T01:18:34;11.57;;;7.87;;
14619;SDS011;32125;48.518;9.050;2023-04-07T01:21:03;10.73;;;7.97;;
14619;SDS011;32125;48.518;9.050;2023-04-07T01:28:55;9.60;;;7.80;;
14619;SDS011;32125;48.518;9.050;2023-04-07T01:31:41;9.63;;;7.67;;
14619;SDS011;32125;48.518;9.050;2023-04-07T01:34:08;9.23;;;7.90;;
14619;SDS011;32125;48.518;9.050;2023-04-07T01:36:35;11.00;;;7.87;;
14619;SDS011;32125;48.518;9.050;2023-04-07T01:39:03;11.47;;;8.27;;
14619;SDS011;32125;48.518;9.050;2023-04-07T01:41:31;9.33;;;7.37;;
14619;SDS011;32125;48.518;9.050;2023-04-07T01:44:00;11.30;;;7.60;;
14619;SDS011;32125;48.518;9.050;2023-04-07T01:46:27;10.13;;;8.07;;
14619;SDS011;32125;48.518;9.050;2023-04-07T01:48:53;13.27;;;8.07;;
14619;SDS011;32125;48.518;9.050;2023-04-07T01:51:20;9.17;;;7.33;;
14619;SDS011;32125;48.518;9.050;2023-04-07T01:53:47;8.70;;;7.30;;
14619;SDS011;32125;48.518;9.050;2023-04-07T01:56:13;9.57;;;7.70;;
14619;SDS011;32125;48.518;9.050;2023-04-07T01:58:40;9.50;;;7.87;;
14619;SDS011;32125;48.518;9.050;2023-04-07T02:01:06;10.93;;;8.47;;
14619;SDS011;32125;48.518;9.050;2023-04-07T02:06:11;10.90;;;8.70;;
14619;SDS011;32125;48.518;9.050;2023-04-07T02:08:41;9.50;;;7.97;;
14619;SDS011;32125;48.518;9.050;2023-04-07T02:11:11;12.07;;;8.50;;
14619;SDS011;32125;48.518;9.050;2023-04-07T02:13:38;10.53;;;8.70;;
14619;SDS011;32125;48.518;9.050;2023-04-07T02:16:05;10.93;;;8.87;;
14619;SDS011;32125;48.518;9.050;2023-04-07T02:18:31;12.33;;;8.70;;
14619;SDS011;32125;48.518;9.050;2023-04-07T02:21:00;11.00;;;8.10;;
14619;SDS011;32125;48.518;9.050;2023-04-07T02:23:27;11.70;;;8.80;;
14619;SDS011;32125;48.518;9.050;2023-04-07T02:25:55;9.93;;;8.23;;
14619;SDS011;32125;48.518;9.050;2023-04-07T02:28:22;9.23;;;8.23;;
14619;SDS011;32125;48.518;9.050;2023-04-07T02:30:48;12.00;;;7.97;;
14619;SDS011;32125;48.518;9.050;2023-04-07T02:33:14;10.20;;;7.93;;
14619;SDS011;32125;48.518;9.050;2023-04-07T02:35:41;11.17;;;8.50;;
14619;SDS011;32125;48.518;9.050;2023-04-07T02:38:07;11.20;;;8.47;;
14619;SDS011;32125;48.518;9.050;2023-04-07T02:40:33;12.40;;;9.17;;
14619;SDS011;32125;48.518;9.050;2023-04-07T02:43:00;10.93;;;8.53;;
14619;SDS011;32125;48.518;9.050;2023-04-07T02:45:26;11.00;;;8.40;;
14619;SDS011;32125;48.518;9.050;2023-04-07T02:47:52;12.33;;;8.70;;
14619;SDS011;32125;48.518;9.050;2023-04-07T02:50:18;10.73;;;8.33;;
14619;SDS011;32125;48.518;9.050;2023-04-07T02:52:44;13.63;;;8.80;;
14619;SDS011;32125;48.518;9.050;2023-04-07T02:55:10;10.60;;;8.80;;
14619;SDS011;32125;48.518;9.050;2023-04-07T02:57:39;10.97;;;8.83;;
14619;SDS011;32125;48.518;9.050;2023-04-07T03:00:05;11.53;;;8.33;;
14619;SDS011;32125;48.518;9.050;2023-04-07T03:02:31;10.70;;;8.80;;
14619;SDS011;32125;48.518;9.050;2023-04-07T03:04:57;11.30;;;8.60;;
14619;SDS011;32125;48.518;9.050;2023-04-07T03:07:23;12.00;;;9.00;;
14619;SDS011;32125;48.518;9.050;2023-04-07T03:09:49;12.60;;;8.77;;
14619;SDS011;32125;48.518;9.050;2023-04-07T03:12:17;11.20;;;8.80;;
14619;SDS011;32125;48.518;9.050;2023-04-07T03:14:43;12.60;;;8.70;;
14619;SDS011;32125;48.518;9.050;2023-04-07T03:17:09;10.53;;;8.97;;
14619;SDS011;32125;48.518;9.050;2023-04-07T03:19:35;10.97;;;8.43;;
14619;SDS011;32125;48.518;9.050;2023-04-07T03:22:01;11.23;;;9.00;;
14619;SDS011;32125;48.518;9.050;2023-04-07T03:24:27;11.73;;;8.77;;
14619;SDS011;32125;48.518;9.050;2023-04-07T03:26:53;10.77;;;8.70;;
14619;SDS011;32125;48.518;9.050;2023-04-07T03:29:20;10.87;;;8.70;;
14619;SDS011;32125;48.518;9.050;2023-04-07T03:31:46;11.50;;;8.70;;
14619;SDS011;32125;48.518;9.050;2023-04-07T03:34:12;13.10;;;9.37;;
14619;SDS011;32125;48.518;9.050;2023-04-07T03:36:38;11.53;;;8.80;;
14619;SDS011;32125;48.518;9.050;2023-04-07T03:39:06;12.60;;;9.10;;
14619;SDS011;32125;48.518;9.050;2023-04-07T03:41:32;11.20;;;8.67;;
14619;SDS011;32125;48.518;9.050;2023-04-07T03:43:58;12.17;;;9.10;;
14619;SDS011;32125;48.518;9.050;2023-04-07T03:46:24;12.83;;;9.50;;
14619;SDS011;32125;48.518;9.050;2023-04-07T03:48:53;11.47;;;8.87;;
14619;SDS011;32125;48.518;9.050;2023-04-07T03:51:19;10.67;;;8.30;;
14619;SDS011;32125;48.518;9.050;2023-04-07T03:53:45;13.33;;;8.90;;
14619;SDS011;32125;48.518;9.050;2023-04-07T03:56:11;11.53;;;9.53;;
14619;SDS011;32125;48.518;9.050;2023-04-07T03:58:37;13.47;;;9.33;;
14619;SDS011;32125;48.518;9.050;2023-04-07T04:01:06;12.43;;;9.10;;
14619;SDS011;32125;48.518;9.050;2023-04-07T04:03:32;10.80;;;8.90;;
14619;SDS011;32125;48.518;9.050;2023-04-07T04:05:58;11.83;;;9.10;;
14619;SDS011;32125;48.518;9.050;2023-04-07T04:08:24;10.63;;;8.80;;
14619;SDS011;32125;48.518;9.050;2023-04-07T04:10:50;11.23;;;8.60;;
14619;SDS011;32125;48.518;9.050;2023-04-07T04:13:16;11.57;;;9.23;;
14619;SDS011;32125;48.518;9.050;2023-04-07T04:15:42;10.53;;;8.47;;
14619;SDS011;32125;48.518;9.050;2023-04-07T04:18:08;12.33;;;9.40;;
14619;SDS011;32125;48.518;9.050;2023-04-07T04:20:34;11.43;;;8.90;;
14619;SDS011;32125;48.518;9.050;2023-04-07T04:23:01;11.77;;;9.07;;
14619;SDS011;32125;48.518;9.050;2023-04-07T04:25:27;12.00;;;8.90;;
14619;SDS011;32125;48.518;9.050;2023-04-07T04:27:53;12.70;;;10.17;;
14619;SDS011;32125;48.518;9.050;2023-04-07T04:30:19;12.07;;;9.17;;
14619;SDS011;32125;48.518;9.050;2023-04-07T04:32:46;12.97;;;9.20;;
14619;SDS011;32125;48.518;9.050;2023-04-07T04:35:12;12.70;;;9.10;;
14619;SDS011;32125;48.518;9.050;2023-04-07T04:37:38;12.37;;;9.93;;
14619;SDS011;32125;48.518;9.050;2023-04-07T04:40:04;13.63;;;9.33;;
14619;SDS011;32125;48.518;9.050;2023-04-07T04:42:32;13.33;;;10.27;;
14619;SDS011;32125;48.518;9.050;2023-04-07T04:44:58;12.30;;;10.10;;
14619;SDS011;32125;48.518;9.050;2023-04-07T04:47:24;12.40;;;9.73;;
14619;SDS011;32125;48.518;9.050;2023-04-07T04:49:51;11.67;;;9.03;;
14619;SDS011;32125;48.518;9.050;2023-04-07T04:52:19;12.27;;;9.67;;
14619;SDS011;32125;48.518;9.050;2023-04-07T04:54:45;12.40;;;9.33;;
14619;SDS011;32125;48.518;9.050;2023-04-07T04:57:11;11.77;;;9.23;;
14619;SDS011;32125;48.518;9.050;2023-04-07T04:59:37;12.20;;;9.37;;
14619;SDS011;32125;48.518;9.050;2023-04-07T05:02:04;13.37;;;10.13;;
14619;SDS011;32125;48.518;9.050;2023-04-07T05:04:30;12.33;;;9.77;;
14619;SDS011;32125;48.518;9.050;2023-04-07T05:06:56;11.17;;;9.17;;
14619;SDS011;32125;48.518;9.050;2023-04-07T05:09:22;12.70;;;9.57;;
14619;SDS011;32125;48.518;9.050;2023-04-07T05:11:48;13.70;;;9.43;;
14619;SDS011;32125;48.518;9.050;2023-04-07T05:14:14;11.60;;;9.60;;
14619;SDS011;32125;48.518;9.050;2023-04-07T05:16:40;13.67;;;9.93;;
14619;SDS011;32125;48.518;9.050;2023-04-07T05:19:06;14.03;;;9.33;;
14619;SDS011;32125;48.518;9.050;2023-04-07T05:21:32;13.10;;;9.37;;
14619;SDS011;32125;48.518;9.050;2023-04-07T05:23:58;10.50;;;8.77;;
14619;SDS011;32125;48.518;9.050;2023-04-07T05:26:24;10.10;;;8.77;;
14619;SDS011;32125;48.518;9.050;2023-04-07T05:28:50;9.20;;;8.27;;
14619;SDS011;32125;48.518;9.050;2023-04-07T05:31:16;9.37;;;7.90;;
14619;SDS011;32125;48.518;9.050;2023-04-07T05:33:42;9.90;;;7.90;;
14619;SDS011;32125;48.518;9.050;2023-04-07T05:36:08;10.83;;;8.33;;
14619;SDS011;32125;48.518;9.050;2023-04-07T05:38:34;9.27;;;7.60;;
14619;SDS011;32125;48.518;9.050;2023-04-07T05:41:02;12.90;;;9.17;;
14619;SDS011;32125;48.518;9.050;2023-04-07T05:43:28;11.47;;;8.43;;
14619;SDS011;32125;48.518;9.050;2023-04-07T05:45:56;10.20;;;8.20;;
14619;SDS011;32125;48.518;9.050;2023-04-07T05:48:22;12.47;;;9.57;;
14619;SDS011;32125;48.518;9.050;2023-04-07T05:50:48;10.93;;;8.97;;
14619;SDS011;32125;48.518;9.050;2023-04-07T05:53:15;11.43;;;9.10;;
14619;SDS011;32125;48.518;9.050;2023-04-07T05:55:41;10.30;;;8.40;;
14619;SDS011;32125;48.518;9.050;2023-04-07T05:58:07;10.93;;;8.63;;
14619;SDS011;32125;48.518;9.050;2023-04-07T06:00:34;10.53;;;9.03;;
14619;SDS011;32125;48.518;9.050;2023-04-07T06:03:02;10.83;;;8.70;;
14619;SDS011;32125;48.518;9.050;2023-04-07T06:05:28;10.03;;;8.40;;
14619;SDS011;32125;48.518;9.050;2023-04-07T06:07:59;9.80;;;8.07;;
14619;SDS011;32125;48.518;9.050;2023-04-07T06:10:25;9.43;;;7.43;;
14619;SDS011;32125;48.518;9.050;2023-04-07T06:12:51;10.03;;;8.27;;
14619;SDS011;32125;48.518;9.050;2023-04-07T06:15:17;8.57;;;7.67;;
14619;SDS011;32125;48.518;9.050;2023-04-07T06:17:43;9.17;;;7.93;;
14619;SDS011;32125;48.518;9.050;2023-04-07T06:20:10;9.77;;;8.00;;
14619;SDS011;32125;48.518;9.050;2023-04-07T06:22:38;10.83;;;8.07;;
14619;SDS011;32125;48.518;9.050;2023-04-07T06:25:04;9.97;;;8.10;;
14619;SDS011;32125;48.518;9.050;2023-04-07T06:27:31;11.63;;;8.23;;
14619;SDS011;32125;48.518;9.050;2023-04-07T06:29:57;10.27;;;8.40;;
14619;SDS011;32125;48.518;9.050;2023-04-07T06:32:25;14.20;;;9.57;;
14619;SDS011;32125;48.518;9.050;2023-04-07T06:34:52;9.70;;;8.53;;
14619;SDS011;32125;48.518;9.050;2023-04-07T06:37:18;11.10;;;8.57;;
14619;SDS011;32125;48.518;9.050;2023-04-07T06:39:44;12.33;;;8.43;;
14619;SDS011;32125;48.518;9.050;2023-04-07T06:42:10;11.73;;;8.73;;
14619;SDS011;32125;48.518;9.050;2023-04-07T06:44:37;9.97;;;8.60;;
14619;SDS011;32125;48.518;9.050;2023-04-07T06:47:03;11.97;;;7.83;;
14619;SDS011;32125;48.518;9.050;2023-04-07T06:49:29;10.20;;;7.93;;
14619;SDS011;32125;48.518;9.050;2023-04-07T06:51:55;10.93;;;8.63;;
14619;SDS011;32125;48.518;9.050;2023-04-07T06:54:21;9.47;;;8.33;;
14619;SDS011;32125;48.518;9.050;2023-04-07T06:56:47;11.17;;;8.23;;
14619;SDS011;32125;48.518;9.050;2023-04-07T06:59:13;10.53;;;8.53;;
14619;SDS011;32125;48.518;9.050;2023-04-07T07:01:42;9.57;;;8.10;;
14619;SDS011;32125;48.518;9.050;2023-04-07T07:04:10;9.67;;;8.57;;
14619;SDS011;32125;48.518;9.050;2023-04-07T07:06:36;11.30;;;8.43;;
14619;SDS011;32125;48.518;9.050;2023-04-07T07:09:03;11.53;;;8.60;;
14619;SDS011;32125;48.518;9.050;2023-04-07T07:11:30;11.57;;;8.90;;
14619;SDS011;32125;48.518;9.050;2023-04-07T07:13:56;10.60;;;8.17;;
14619;SDS011;32125;48.518;9.050;2023-04-07T07:16:22;10.53;;;8.57;;
14619;SDS011;32125;48.518;9.050;2023-04-07T07:18:50;10.17;;;8.53;;
14619;SDS011;32125;48.518;9.050;2023-04-07T07:21:17;9.70;;;8.40;;
14619;SDS011;32125;48.518;9.050;2023-04-07T07:23:43;8.43;;;7.53;;
14619;SDS011;32125;48.518;9.050;2023-04-07T07:26:09;9.07;;;7.73;;
14619;SDS011;32125;48.518;9.050;2023-04-07T07:28:37;8.60;;;7.70;;
14619;SDS011;32125;48.518;9.050;2023-04-07T07:31:09;9.37;;;8.20;;
14619;SDS011;32125;48.518;9.050;2023-04-07T07:33:40;10.07;;;8.40;;
14619;SDS011;32125;48.518;9.050;2023-04-07T07:36:08;8.53;;;7.30;;
14619;SDS011;32125;48.518;9.050;2023-04-07T07:38:41;8.47;;;7.50;;
14619;SDS011;32125;48.518;9.050;2023-04-07T07:41:07;8.40;;;7.50;;
14619;SDS011;32125;48.518;9.050;2023-04-07T07:43:33;9.17;;;7.90;;
14619;SDS011;32125;48.518;9.050;2023-04-07T07:45:59;8.17;;;7.23;;
14619;SDS011;32125;48.518;9.050;2023-04-07T07:48:25;8.70;;;7.40;;
14619;SDS011;32125;48.518;9.050;2023-04-07T07:50:51;10.13;;;8.60;;
14619;SDS011;32125;48.518;9.050;2023-04-07T07:53:18;8.47;;;7.60;;
14619;SDS011;32125;48.518;9.050;2023-04-07T07:55:44;9.10;;;7.80;;
14619;SDS011;32125;48.518;9.050;2023-04-07T07:58:13;9.43;;;7.70;;
14619;SDS011;32125;48.518;9.050;2023-04-07T08:00:39;9.13;;;7.23;;
14619;SDS011;32125;48.518;9.050;2023-04-07T08:03:06;7.70;;;7.00;;
14619;SDS011;32125;48.518;9.050;2023-04-07T08:05:32;7.97;;;7.17;;
14619;SDS011;32125;48.518;9.050;2023-04-07T08:07:58;8.05;;;6.72;;
14619;SDS011;32125;48.518;9.050;2023-04-07T08:10:24;6.95;;;6.25;;
14619;SDS011;32125;48.518;9.050;2023-04-07T08:12:50;7.20;;;6.05;;
14619;SDS011;32125;48.518;9.050;2023-04-07T08:15:16;7.82;;;5.68;;
14619;SDS011;32125;48.518;9.050;2023-04-07T08:17:42;6.15;;;5.55;;
14619;SDS011;32125;48.518;9.050;2023-04-07T08:20:08;7.13;;;5.90;;
14619;SDS011;32125;48.518;9.050;2023-04-07T08:22:36;6.00;;;5.50;;
14619;SDS011;32125;48.518;9.050;2023-04-07T08:25:02;6.63;;;5.57;;
14619;SDS011;32125;48.518;9.050;2023-04-07T08:27:28;5.72;;;5.22;;
14619;SDS011;32125;48.518;9.050;2023-04-07T08:29:58;5.43;;;4.93;;
14619;SDS011;32125;48.518;9.050;2023-04-07T08:32:24;5.25;;;4.75;;
14619;SDS011;32125;48.518;9.050;2023-04-07T08:34:54;5.40;;;4.90;;
14619;SDS011;32125;48.518;9.050;2023-04-07T08:37:20;5.30;;;4.80;;
14619;SDS011;32125;48.518;9.050;2023-04-07T08:39:46;6.30;;;5.70;;
14619;SDS011;32125;48.518;9.050;2023-04-07T08:42:12;6.13;;;5.53;;
14619;SDS011;32125;48.518;9.050;2023-04-07T08:44:38;6.18;;;5.28;;
14619;SDS011;32125;48.518;9.050;2023-04-07T08:47:05;5.32;;;4.82;;
14619;SDS011;32125;48.518;9.050;2023-04-07T08:49:31;4.90;;;4.35;;
14619;SDS011;32125;48.518;9.050;2023-04-07T08:51:57;5.38;;;4.38;;
14619;SDS011;32125;48.518;9.050;2023-04-07T08:54:25;4.80;;;4.23;;
14619;SDS011;32125;48.518;9.050;2023-04-07T08:56:51;5.13;;;4.50;;
14619;SDS011;32125;48.518;9.050;2023-04-07T08:59:17;4.10;;;3.80;;
14619;SDS011;32125;48.518;9.050;2023-04-07T09:01:49;4.30;;;3.90;;
14619;SDS011;32125;48.518;9.050;2023-04-07T09:04:16;5.47;;;4.35;;
14619;SDS011;32125;48.518;9.050;2023-04-07T09:06:42;4.90;;;4.50;;
14619;SDS011;32125;48.518;9.050;2023-04-07T09:09:08;4.72;;;4.13;;
14619;SDS011;32125;48.518;9.050;2023-04-07T09:11:35;5.10;;;4.38;;
14619;SDS011;32125;48.518;9.050;2023-04-07T09:14:01;5.95;;;4.60;;
14619;SDS011;32125;48.518;9.050;2023-04-07T09:16:28;4.35;;;3.67;;
14619;SDS011;32125;48.518;9.050;2023-04-07T09:18:57;3.97;;;3.67;;
14619;SDS011;32125;48.518;9.050;2023-04-07T09:21:23;4.20;;;3.60;;
14619;SDS011;32125;48.518;9.050;2023-04-07T09:23:52;3.50;;;3.20;;
14619;SDS011;32125;48.518;9.050;2023-04-07T09:28:46;4.43;;;3.20;;
14619;SDS011;32125;48.518;9.050;2023-04-07T09:31:15;3.28;;;2.83;;
14619;SDS011;32125;48.518;9.050;2023-04-07T09:33:41;3.03;;;2.72;;
14619;SDS011;32125;48.518;9.050;2023-04-07T09:36:07;4.18;;;3.30;;
14619;SDS011;32125;48.518;9.050;2023-04-07T09:38:35;3.08;;;2.75;;
14619;SDS011;32125;48.518;9.050;2023-04-07T09:41:05;4.53;;;3.03;;
14619;SDS011;32125;48.518;9.050;2023-04-07T09:43:32;3.60;;;3.00;;
14619;SDS011;32125;48.518;9.050;2023-04-07T09:46:10;5.55;;;3.00;;
14619;SDS011;32125;48.518;9.050;2023-04-07T09:48:36;3.80;;;2.90;;
14619;SDS011;32125;48.518;9.050;2023-04-07T09:51:21;4.47;;;3.30;;
14619;SDS011;32125;48.518;9.050;2023-04-07T09:53:50;5.03;;;3.20;;
14619;SDS011;32125;48.518;9.050;2023-04-07T09:56:20;2.92;;;2.70;;
14619;SDS011;32125;48.518;9.050;2023-04-07T09:58:47;3.15;;;2.80;;
14619;SDS011;32125;48.518;9.050;2023-04-07T10:01:16;3.35;;;2.80;;
14619;SDS011;32125;48.518;9.050;2023-04-07T10:03:42;2.90;;;2.55;;
14619;SDS011;32125;48.518;9.050;2023-04-07T10:06:13;3.97;;;3.10;;
14619;SDS011;32125;48.518;9.050;2023-04-07T10:08:41;3.25;;;2.95;;
14619;SDS011;32125;48.518;9.050;2023-04-07T10:11:07;3.67;;;2.63;;
14619;SDS011;32125;48.518;9.050;2023-04-07T10:13:34;3.38;;;3.00;;
14619;SDS011;32125;48.518;9.050;2023-04-07T10:16:04;3.85;;;2.95;;
14619;SDS011;32125;48.518;9.050;2023-04-07T10:18:32;4.28;;;3.00;;
14619;SDS011;32125;48.518;9.050;2023-04-07T10:20:59;4.30;;;2.80;;
14619;SDS011;32125;48.518;9.050;2023-04-07T10:26:32;3.45;;;2.67;;
14619;SDS011;32125;48.518;9.050;2023-04-07T10:29:01;3.50;;;2.40;;
14619;SDS011;32125;48.518;9.050;2023-04-07T10:31:31;4.68;;;2.50;;
14619;SDS011;32125;48.518;9.050;2023-04-07T10:33:57;2.88;;;2.47;;
14619;SDS011;32125;48.518;9.050;2023-04-07T10:36:23;3.13;;;2.10;;
14619;SDS011;32125;48.518;9.050;2023-04-07T10:41:32;5.75;;;2.55;;
14619;SDS011;32125;48.518;9.050;2023-04-07T10:44:01;3.95;;;2.90;;
14619;SDS011;32125;48.518;9.050;2023-04-07T10:49:13;6.07;;;4.65;;
14619;SDS011;32125;48.518;9.050;2023-04-07T10:51:40;3.60;;;2.80;;
14619;SDS011;32125;48.518;9.050;2023-04-07T10:54:19;3.50;;;3.20;;
14619;SDS011;32125;48.518;9.050;2023-04-07T10:59:34;3.60;;;2.88;;
14619;SDS011;32125;48.518;9.050;2023-04-07T11:04:42;4.03;;;3.07;;
14619;SDS011;32125;48.518;9.050;2023-04-07T11:07:09;3.73;;;2.90;;
14619;SDS011;32125;48.518;9.050;2023-04-07T11:09:36;3.47;;;2.83;;
14619;SDS011;32125;48.518;9.050;2023-04-07T11:12:05;3.17;;;2.53;;
14619;SDS011;32125;48.518;9.050;2023-04-07T11:14:33;3.50;;;2.30;;
14619;SDS011;32125;48.518;9.050;2023-04-07T11:17:01;2.23;;;2.00;;
14619;SDS011;32125;48.518;9.050;2023-04-07T11:19:28;3.23;;;1.90;;
14619;SDS011;32125;48.518;9.050;2023-04-07T11:22:17;1.80;;;1.70;;
14619;SDS011;32125;48.518;9.050;2023-04-07T11:24:46;2.17;;;1.40;;
14619;SDS011;32125;48.518;9.050;2023-04-07T11:27:15;1.40;;;1.30;;
14619;SDS011;32125;48.518;9.050;2023-04-07T11:29:41;1.90;;;1.40;;
14619;SDS011;32125;48.518;9.050;2023-04-07T11:32:09;2.43;;;1.50;;
14619;SDS011;32125;48.518;9.050;2023-04-07T11:34:38;4.07;;;1.77;;
14619;SDS011;32125;48.518;9.050;2023-04-07T11:40:03;5.43;;;2.20;;
14619;SDS011;32125;48.518;9.050;2023-04-07T11:42:36;5.10;;;1.90;;
14619;SDS011;32125;48.518;9.050;2023-04-07T11:45:16;3.23;;;1.80;;
14619;SDS011;32125;48.518;9.050;2023-04-07T11:47:43;5.13;;;2.30;;
14619;SDS011;32125;48.518;9.050;2023-04-07T11:50:10;5.23;;;2.30;;
14619;SDS011;32125;48.518;9.050;2023-04-07T11:52:54;3.20;;;2.03;;
14619;SDS011;32125;48.518;9.050;2023-04-07T11:55:21;5.70;;;2.40;;
14619;SDS011;32125;48.518;9.050;2023-04-07T11:57:50;7.13;;;3.03;;
14619;SDS011;32125;48.518;9.050;2023-04-07T12:00:17;6.23;;;2.40;;
14619;SDS011;32125;48.518;9.050;2023-04-07T12:02:44;6.57;;;2.93;;
14619;SDS011;32125;48.518;9.050;2023-04-07T12:05:10;8.97;;;2.90;;
14619;SDS011;32125;48.518;9.050;2023-04-07T12:07:37;5.90;;;3.07;;
14619;SDS011;32125;48.518;9.050;2023-04-07T12:10:24;5.47;;;2.90;;
14619;SDS011;32125;48.518;9.050;2023-04-07T12:12:53;4.83;;;2.90;;
14619;SDS011;32125;48.518;9.050;2023-04-07T12:15:20;4.97;;;3.20;;
14619;SDS011;32125;48.518;9.050;2023-04-07T12:17:49;4.77;;;3.37;;
14619;SDS011;32125;48.518;9.050;2023-04-07T12:20:15;5.50;;;3.10;;
14619;SDS011;32125;48.518;9.050;2023-04-07T12:22:41;5.80;;;3.40;;
14619;SDS011;32125;48.518;9.050;2023-04-07T12:25:07;5.83;;;3.20;;
14619;SDS011;32125;48.518;9.050;2023-04-07T12:27:36;4.63;;;2.83;;
14619;SDS011;32125;48.518;9.050;2023-04-07T12:30:04;3.43;;;2.87;;
14619;SDS011;32125;48.518;9.050;2023-04-07T12:32:30;3.87;;;3.30;;
14619;SDS011;32125;48.518;9.050;2023-04-07T12:34:57;4.47;;;2.83;;
14619;SDS011;32125;48.518;9.050;2023-04-07T12:37:23;2.80;;;2.53;;
14619;SDS011;32125;48.518;9.050;2023-04-07T12:39:51;3.63;;;2.67;;
14619;SDS011;32125;48.518;9.050;2023-04-07T12:42:17;2.43;;;1.97;;
14619;SDS011;32125;48.518;9.050;2023-04-07T12:44:46;3.13;;;2.30;;
14619;SDS011;32125;48.518;9.050;2023-04-07T12:47:18;2.13;;;1.77;;
14619;SDS011;32125;48.518;9.050;2023-04-07T12:49:47;2.00;;;1.90;;
14619;SDS011;32125;48.518;9.050;2023-04-07T12:52:18;2.97;;;2.03;;
14619;SDS011;32125;48.518;9.050;2023-04-07T12:57:17;2.17;;;1.93;;
14619;SDS011;32125;48.518;9.050;2023-04-07T12:59:46;2.63;;;1.70;;
14619;SDS011;32125;48.518;9.050;2023-04-07T13:02:14;3.03;;;2.00;;
14619;SDS011;32125;48.518;9.050;2023-04-07T13:04:42;2.40;;;1.70;;
14619;SDS011;32125;48.518;9.050;2023-04-07T13:07:11;3.53;;;2.80;;
14619;SDS011;32125;48.518;9.050;2023-04-07T13:09:37;1.80;;;1.70;;
14619;SDS011;32125;48.518;9.050;2023-04-07T13:12:03;1.80;;;1.70;;
14619;SDS011;32125;48.518;9.050;2023-04-07T13:14:45;2.57;;;1.90;;
14619;SDS011;32125;48.518;9.050;2023-04-07T13:20:32;3.20;;;1.37;;
14619;SDS011;32125;48.518;9.050;2023-04-07T13:22:58;1.60;;;1.40;;
14619;SDS011;32125;48.518;9.050;2023-04-07T13:25:26;1.83;;;1.40;;
14619;SDS011;32125;48.518;9.050;2023-04-07T13:27:52;2.17;;;1.53;;
14619;SDS011;32125;48.518;9.050;2023-04-07T13:30:20;3.00;;;1.77;;
14619;SDS011;32125;48.518;9.050;2023-04-07T13:32:46;2.00;;;1.80;;
14619;SDS011;32125;48.518;9.050;2023-04-07T13:35:16;2.10;;;1.60;;
14619;SDS011;32125;48.518;9.050;2023-04-07T13:37:42;1.73;;;1.40;;
14619;SDS011;32125;48.518;9.050;2023-04-07T13:40:11;2.50;;;1.43;;
14619;SDS011;32125;48.518;9.050;2023-04-07T13:42:42;2.23;;;1.60;;
14619;SDS011;32125;48.518;9.050;2023-04-07T13:45:10;1.53;;;1.40;;
14619;SDS011;32125;48.518;9.050;2023-04-07T13:47:36;1.83;;;1.53;;
14619;SDS011;32125;48.518;9.050;2023-04-07T13:50:02;1.93;;;1.50;;
14619;SDS011;32125;48.518;9.050;2023-04-07T13:52:28;1.53;;;1.43;;
14619;SDS011;32125;48.518;9.050;2023-04-07T13:54:56;2.30;;;1.40;;
14619;SDS011;32125;48.518;9.050;2023-04-07T13:57:22;3.17;;;1.70;;
14619;SDS011;32125;48.518;9.050;2023-04-07T13:59:51;1.50;;;1.40;;
14619;SDS011;32125;48.518;9.050;2023-04-07T14:02:19;1.57;;;1.30;;
14619;SDS011;32125;48.518;9.050;2023-04-07T14:04:45;3.83;;;1.70;;
14619;SDS011;32125;48.518;9.050;2023-04-07T14:07:11;1.60;;;1.50;;
14619;SDS011;32125;48.518;9.050;2023-04-07T14:09:38;2.50;;;1.70;;
14619;SDS011;32125;48.518;9.050;2023-04-07T14:12:04;4.50;;;1.70;;
14619;SDS011;32125;48.518;9.050;2023-04-07T14:14:30;2.73;;;1.50;;
14619;SDS011;32125;48.518;9.050;2023-04-07T14:16:58;1.70;;;1.60;;
14619;SDS011;32125;48.518;9.050;2023-04-07T14:19:24;2.90;;;1.60;;
14619;SDS011;32125;48.518;9.050;2023-04-07T14:21:50;1.90;;;1.70;;
14619;SDS011;32125;48.518;9.050;2023-04-07T14:24:17;3.03;;;1.90;;
14619;SDS011;32125;48.518;9.050;2023-04-07T14:26:43;2.90;;;1.90;;
14619;SDS011;32125;48.518;9.050;2023-04-07T14:29:10;4.47;;;2.17;;
14619;SDS011;32125;48.518;9.050;2023-04-07T14:31:36;2.60;;;1.90;;
14619;SDS011;32125;48.518;9.050;2023-04-07T14:34:02;3.00;;;2.10;;
14619;SDS011;32125;48.518;9.050;2023-04-07T14:36:31;2.80;;;2.10;;
14619;SDS011;32125;48.518;9.050;2023-04-07T14:38:59;3.17;;;2.17;;
14619;SDS011;32125;48.518;9.050;2023-04-07T14:41:26;2.87;;;1.73;;
14619;SDS011;32125;48.518;9.050;2023-04-07T14:43:52;1.77;;;1.40;;
14619;SDS011;32125;48.518;9.050;2023-04-07T14:46:21;1.90;;;1.40;;
14619;SDS011;32125;48.518;9.050;2023-04-07T14:48:48;2.27;;;1.37;;
14619;SDS011;32125;48.518;9.050;2023-04-07T14:51:16;1.60;;;1.50;;
14619;SDS011;32125;48.518;9.050;2023-04-07T14:53:42;1.40;;;1.30;;
14619;SDS011;32125;48.518;9.050;2023-04-07T14:56:09;2.50;;;1.50;;
14619;SDS011;32125;48.518;9.050;2023-04-07T14:58:35;1.40;;;1.30;;
14619;SDS011;32125;48.518;9.050;2023-04-07T15:01:04;2.33;;;1.53;;
14619;SDS011;32125;48.518;9.050;2023-04-07T15:03:31;2.33;;;1.37;;
14619;SDS011;32125;48.518;9.050;2023-04-07T15:05:58;2.23;;;1.27;;
14619;SDS011;32125;48.518;9.050;2023-04-07T15:08:24;1.87;;;1.40;;
14619;SDS011;32125;48.518;9.050;2023-04-07T15:10:53;2.00;;;1.90;;
14619;SDS011;32125;48.518;9.050;2023-04-07T15:13:19;3.00;;;1.70;;
14619;SDS011;32125;48.518;9.050;2023-04-07T15:15:45;2.67;;;1.50;;
14619;SDS011;32125;48.518;9.050;2023-04-07T15:18:10;2.90;;;1.70;;